sensor_id;sensor_type;location;lat;lon;timestamp;pressure;altitude;pressure_sealevel;temperature;humidity
12215;BME280;6170;42.206;24.142;2024-03-02T00:01:31;98393.44;;;8.92;98.43
12215;BME280;6170;42.206;24.142;2024-03-02T00:03:58;98415.03;;;9.03;98.52
12215;BME280;6170;42.206;24.142;2024-03-02T00:06:25;98398.59;;;9.00;98.23
12215;BME280;6170;42.206;24.142;2024-03-02T00:08:57;98471.09;;;9.44;98.17
12215;BME280;6170;42.206;24.142;2024-03-02T00:11:24;98392.38;;;8.80;98.19
12215;BME280;6170;42.206;24.142;2024-03-02T00:13:53;98489.34;;;9.28;98.91
12215;BME280;6170;42.206;24.142;2024-03-02T00:16:20;98396.69;;;8.81;98.72
12215;BME280;6170;42.206;24.142;2024-03-02T00:18:47;98494.47;;;9.23;98.97
12215;BME280;6170;42.206;24.142;2024-03-02T00:21:14;98363.69;;;8.47;99.64
12215;BME280;6170;42.206;24.142;2024-03-02T00:23:44;98492.84;;;9.35;99.87
12215;BME280;6170;42.206;24.142;2024-03-02T00:26:11;98475.25;;;8.99;99.76
12215;BME280;6170;42.206;24.142;2024-03-02T00:28:39;98394.72;;;8.55;100.00
12215;BME280;6170;42.206;24.142;2024-03-02T00:31:11;98372.50;;;8.41;100.00
12215;BME280;6170;42.206;24.142;2024-03-02T00:33:41;98389.06;;;8.71;100.00
12215;BME280;6170;42.206;24.142;2024-03-02T00:36:09;98392.16;;;8.75;100.00
12215;BME280;6170;42.206;24.142;2024-03-02T00:38:44;98360.06;;;8.62;100.00
12215;BME280;6170;42.206;24.142;2024-03-02T00:41:15;98475.16;;;9.27;100.00
12215;BME280;6170;42.206;24.142;2024-03-02T00:43:53;98388.84;;;8.66;100.00
12215;BME280;6170;42.206;24.142;2024-03-02T00:46:25;98363.94;;;8.59;100.00
12215;BME280;6170;42.206;24.142;2024-03-02T00:48:54;98363.09;;;8.52;100.00
12215;BME280;6170;42.206;24.142;2024-03-02T00:51:22;98455.81;;;9.25;100.00
12215;BME280;6170;42.206;24.142;2024-03-02T00:53:49;98397.75;;;8.93;100.00
12215;BME280;6170;42.206;24.142;2024-03-02T00:56:17;98353.47;;;8.64;100.00
12215;BME280;6170;42.206;24.142;2024-03-02T00:58:44;98448.63;;;9.26;100.00
12215;BME280;6170;42.206;24.142;2024-03-02T01:01:11;98422.94;;;9.25;100.00
12215;BME280;6170;42.206;24.142;2024-03-02T01:03:39;98340.13;;;8.64;100.00
12215;BME280;6170;42.206;24.142;2024-03-02T01:06:07;98347.91;;;8.52;100.00
12215;BME280;6170;42.206;24.142;2024-03-02T01:08:34;98420.19;;;9.12;100.00
12215;BME280;6170;42.206;24.142;2024-03-02T01:11:01;98432.59;;;9.32;100.00
12215;BME280;6170;42.206;24.142;2024-03-02T01:13:28;98341.13;;;8.56;100.00
12215;BME280;6170;42.206;24.142;2024-03-02T01:15:55;98336.03;;;8.62;100.00
12215;BME280;6170;42.206;24.142;2024-03-02T01:18:22;98325.53;;;8.60;100.00
12215;BME280;6170;42.206;24.142;2024-03-02T01:20:50;98356.41;;;8.76;100.00
12215;BME280;6170;42.206;24.142;2024-03-02T01:23:18;98312.81;;;8.62;100.00
12215;BME280;6170;42.206;24.142;2024-03-02T01:25:46;98339.94;;;8.72;100.00
12215;BME280;6170;42.206;24.142;2024-03-02T01:28:13;98353.16;;;8.93;100.00
12215;BME280;6170;42.206;24.142;2024-03-02T01:30:40;98438.59;;;9.47;100.00
12215;BME280;6170;42.206;24.142;2024-03-02T01:33:07;98329.72;;;8.89;99.58
12215;BME280;6170;42.206;24.142;2024-03-02T01:35:34;98335.47;;;8.99;99.31
12215;BME280;6170;42.206;24.142;2024-03-02T01:38:03;98328.09;;;9.01;99.26
12215;BME280;6170;42.206;24.142;2024-03-02T01:40:31;98325.63;;;8.93;99.28
12215;BME280;6170;42.206;24.142;2024-03-02T01:42:58;98329.66;;;8.69;99.93
12215;BME280;6170;42.206;24.142;2024-03-02T01:45:25;98346.75;;;8.75;100.00
12215;BME280;6170;42.206;24.142;2024-03-02T01:47:53;98435.88;;;9.28;100.00
12215;BME280;6170;42.206;24.142;2024-03-02T01:50:25;98330.91;;;8.73;100.00
12215;BME280;6170;42.206;24.142;2024-03-02T01:52:52;98319.88;;;8.89;100.00
12215;BME280;6170;42.206;24.142;2024-03-02T01:55:21;98333.66;;;9.06;99.64
12215;BME280;6170;42.206;24.142;2024-03-02T01:57:48;98391.63;;;9.12;99.93
12215;BME280;6170;42.206;24.142;2024-03-02T02:00:16;98326.03;;;8.96;99.65
12215;BME280;6170;42.206;24.142;2024-03-02T02:02:43;98307.13;;;8.85;99.42
12215;BME280;6170;42.206;24.142;2024-03-02T02:05:11;98323.34;;;8.90;99.84
12215;BME280;6170;42.206;24.142;2024-03-02T02:07:38;98399.31;;;9.55;99.71
12215;BME280;6170;42.206;24.142;2024-03-02T02:10:05;98287.09;;;8.54;99.87
12215;BME280;6170;42.206;24.142;2024-03-02T02:12:34;98319.22;;;8.94;99.71
12215;BME280;6170;42.206;24.142;2024-03-02T02:15:01;98411.66;;;9.62;99.37
12215;BME280;6170;42.206;24.142;2024-03-02T02:17:28;98311.63;;;8.91;99.21
12215;BME280;6170;42.206;24.142;2024-03-02T02:19:55;98295.81;;;8.89;99.71
12215;BME280;6170;42.206;24.142;2024-03-02T02:22:24;98406.72;;;9.59;99.16
12215;BME280;6170;42.206;24.142;2024-03-02T02:24:51;98315.75;;;9.00;98.99
12215;BME280;6170;42.206;24.142;2024-03-02T02:27:18;98315.25;;;8.57;99.83
12215;BME280;6170;42.206;24.142;2024-03-02T02:29:45;98284.38;;;8.41;100.00
12215;BME280;6170;42.206;24.142;2024-03-02T02:32:11;98313.88;;;8.94;100.00
12215;BME280;6170;42.206;24.142;2024-03-02T02:34:38;98404.66;;;9.41;100.00
12215;BME280;6170;42.206;24.142;2024-03-02T02:37:05;98306.88;;;8.73;100.00
12215;BME280;6170;42.206;24.142;2024-03-02T02:39:33;98401.56;;;9.25;100.00
12215;BME280;6170;42.206;24.142;2024-03-02T02:42:00;98267.63;;;8.54;100.00
12215;BME280;6170;42.206;24.142;2024-03-02T02:44:28;98400.72;;;9.24;100.00
12215;BME280;6170;42.206;24.142;2024-03-02T02:46:55;98309.09;;;8.63;100.00
12215;BME280;6170;42.206;24.142;2024-03-02T02:49:22;98302.78;;;8.77;100.00
12215;BME280;6170;42.206;24.142;2024-03-02T02:51:49;98405.66;;;9.27;100.00
12215;BME280;6170;42.206;24.142;2024-03-02T02:54:16;98314.44;;;8.63;100.00
12215;BME280;6170;42.206;24.142;2024-03-02T02:56:44;98407.53;;;9.33;100.00
12215;BME280;6170;42.206;24.142;2024-03-02T02:59:11;98303.78;;;8.70;100.00
12215;BME280;6170;42.206;24.142;2024-03-02T03:01:38;98404.66;;;9.41;100.00
12215;BME280;6170;42.206;24.142;2024-03-02T03:04:05;98301.06;;;8.50;100.00
12215;BME280;6170;42.206;24.142;2024-03-02T03:06:32;98301.88;;;8.44;100.00
12215;BME280;6170;42.206;24.142;2024-03-02T03:08:59;98365.22;;;8.70;100.00
12215;BME280;6170;42.206;24.142;2024-03-02T03:11:26;98303.53;;;8.45;100.00
12215;BME280;6170;42.206;24.142;2024-03-02T03:13:54;98301.28;;;8.55;100.00
12215;BME280;6170;42.206;24.142;2024-03-02T03:16:21;98308.25;;;8.49;100.00
12215;BME280;6170;42.206;24.142;2024-03-02T03:18:48;98364.84;;;8.79;100.00
12215;BME280;6170;42.206;24.142;2024-03-02T03:21:17;98306.47;;;8.22;100.00
12215;BME280;6170;42.206;24.142;2024-03-02T03:23:44;98302.75;;;8.23;100.00
12215;BME280;6170;42.206;24.142;2024-03-02T03:26:11;98259.91;;;7.84;100.00
12215;BME280;6170;42.206;24.142;2024-03-02T03:28:38;98402.63;;;8.70;100.00
12215;BME280;6170;42.206;24.142;2024-03-02T03:31:06;98302.72;;;8.10;100.00
12215;BME280;6170;42.206;24.142;2024-03-02T03:33:33;98304.00;;;8.14;100.00
12215;BME280;6170;42.206;24.142;2024-03-02T03:36:01;98255.38;;;7.78;100.00
12215;BME280;6170;42.206;24.142;2024-03-02T03:38:28;98401.66;;;8.90;100.00
12215;BME280;6170;42.206;24.142;2024-03-02T03:40:55;98305.19;;;8.05;100.00
12215;BME280;6170;42.206;24.142;2024-03-02T03:43:22;98301.16;;;7.88;100.00
12215;BME280;6170;42.206;24.142;2024-03-02T03:45:49;98294.94;;;7.74;100.00
12215;BME280;6170;42.206;24.142;2024-03-02T03:48:18;98410.16;;;8.53;100.00
12215;BME280;6170;42.206;24.142;2024-03-02T03:50:45;98307.78;;;7.92;100.00
12215;BME280;6170;42.206;24.142;2024-03-02T03:53:12;98401.19;;;8.67;100.00
12215;BME280;6170;42.206;24.142;2024-03-02T03:55:40;98300.16;;;7.89;100.00
12215;BME280;6170;42.206;24.142;2024-03-02T03:58:07;98302.69;;;8.03;100.00
12215;BME280;6170;42.206;24.142;2024-03-02T04:00:33;98404.84;;;8.66;100.00
12215;BME280;6170;42.206;24.142;2024-03-02T04:03:00;98309.25;;;8.01;100.00
12215;BME280;6170;42.206;24.142;2024-03-02T04:05:29;98294.84;;;7.95;100.00
12215;BME280;6170;42.206;24.142;2024-03-02T04:07:56;98301.88;;;8.03;100.00
12215;BME280;6170;42.206;24.142;2024-03-02T04:10:23;98408.13;;;8.62;100.00
12215;BME280;6170;42.206;24.142;2024-03-02T04:12:50;98275.53;;;7.87;100.00
12215;BME280;6170;42.206;24.142;2024-03-02T04:15:17;98291.72;;;8.26;100.00
12215;BME280;6170;42.206;24.142;2024-03-02T04:17:45;98294.34;;;8.20;100.00
12215;BME280;6170;42.206;24.142;2024-03-02T04:20:12;98297.41;;;8.17;100.00
12215;BME280;6170;42.206;24.142;2024-03-02T04:22:40;98293.59;;;7.91;100.00
12215;BME280;6170;42.206;24.142;2024-03-02T04:25:08;98288.53;;;7.68;100.00
12215;BME280;6170;42.206;24.142;2024-03-02T04:27:35;98403.31;;;8.44;100.00
12215;BME280;6170;42.206;24.142;2024-03-02T04:30:03;98293.97;;;7.88;100.00
12215;BME280;6170;42.206;24.142;2024-03-02T04:32:30;98292.97;;;7.89;100.00
12215;BME280;6170;42.206;24.142;2024-03-02T04:34:57;98295.97;;;7.73;100.00
12215;BME280;6170;42.206;24.142;2024-03-02T04:37:24;98404.59;;;8.54;100.00
12215;BME280;6170;42.206;24.142;2024-03-02T04:39:52;98302.16;;;7.80;100.00
12215;BME280;6170;42.206;24.142;2024-03-02T04:42:19;98310.53;;;7.77;100.00
12215;BME280;6170;42.206;24.142;2024-03-02T04:44:46;98289.22;;;7.77;100.00
12215;BME280;6170;42.206;24.142;2024-03-02T04:47:13;98407.00;;;8.43;100.00
12215;BME280;6170;42.206;24.142;2024-03-02T04:49:40;98315.28;;;7.82;100.00
12215;BME280;6170;42.206;24.142;2024-03-02T04:52:07;98283.81;;;7.71;100.00
12215;BME280;6170;42.206;24.142;2024-03-02T04:54:33;98416.50;;;8.52;100.00
12215;BME280;6170;42.206;24.142;2024-03-02T04:57:22;98417.25;;;8.39;100.00
12215;BME280;6170;42.206;24.142;2024-03-02T04:59:49;98322.88;;;7.78;100.00
12215;BME280;6170;42.206;24.142;2024-03-02T05:02:16;98338.66;;;7.80;100.00
12215;BME280;6170;42.206;24.142;2024-03-02T05:04:43;98313.16;;;7.71;100.00
12215;BME280;6170;42.206;24.142;2024-03-02T05:07:10;98320.47;;;7.62;100.00
12215;BME280;6170;42.206;24.142;2024-03-02T05:09:37;98427.00;;;8.26;100.00
12215;BME280;6170;42.206;24.142;2024-03-02T05:12:05;98339.22;;;7.68;100.00
12215;BME280;6170;42.206;24.142;2024-03-02T05:14:56;98324.91;;;7.76;100.00
12215;BME280;6170;42.206;24.142;2024-03-02T05:17:23;98336.03;;;7.86;100.00
12215;BME280;6170;42.206;24.142;2024-03-02T05:19:50;98437.13;;;8.30;100.00
12215;BME280;6170;42.206;24.142;2024-03-02T05:22:16;98336.31;;;7.70;100.00
12215;BME280;6170;42.206;24.142;2024-03-02T05:24:43;98438.78;;;8.31;100.00
12215;BME280;6170;42.206;24.142;2024-03-02T05:27:10;98324.13;;;7.54;100.00
12215;BME280;6170;42.206;24.142;2024-03-02T05:29:37;98343.72;;;7.68;100.00
12215;BME280;6170;42.206;24.142;2024-03-02T05:32:06;98341.91;;;7.75;100.00
12215;BME280;6170;42.206;24.142;2024-03-02T05:34:33;98334.56;;;7.77;100.00
12215;BME280;6170;42.206;24.142;2024-03-02T05:37:01;98348.38;;;7.87;100.00
12215;BME280;6170;42.206;24.142;2024-03-02T05:39:27;98448.97;;;8.28;100.00
12215;BME280;6170;42.206;24.142;2024-03-02T05:41:54;98371.31;;;7.82;100.00
12215;BME280;6170;42.206;24.142;2024-03-02T05:44:21;98357.56;;;7.85;100.00
12215;BME280;6170;42.206;24.142;2024-03-02T05:46:48;98350.63;;;7.62;100.00
12215;BME280;6170;42.206;24.142;2024-03-02T05:49:16;98354.41;;;7.75;100.00
12215;BME280;6170;42.206;24.142;2024-03-02T05:51:43;98369.66;;;7.81;100.00
12215;BME280;6170;42.206;24.142;2024-03-02T05:54:10;98339.59;;;7.65;100.00
12215;BME280;6170;42.206;24.142;2024-03-02T05:56:37;98459.75;;;8.41;100.00
12215;BME280;6170;42.206;24.142;2024-03-02T05:59:04;98342.72;;;7.69;100.00
12215;BME280;6170;42.206;24.142;2024-03-02T06:01:38;98365.81;;;7.90;100.00
12215;BME280;6170;42.206;24.142;2024-03-02T06:04:05;98331.81;;;7.71;100.00
12215;BME280;6170;42.206;24.142;2024-03-02T06:06:33;98409.91;;;8.20;100.00
12215;BME280;6170;42.206;24.142;2024-03-02T06:09:00;98466.00;;;8.54;100.00
12215;BME280;6170;42.206;24.142;2024-03-02T06:11:28;98357.56;;;7.85;100.00
12215;BME280;6170;42.206;24.142;2024-03-02T06:13:55;98350.22;;;7.59;100.00
12215;BME280;6170;42.206;24.142;2024-03-02T06:16:21;98270.44;;;7.30;100.00
12215;BME280;6170;42.206;24.142;2024-03-02T06:18:48;98339.53;;;7.87;100.00
12215;BME280;6170;42.206;24.142;2024-03-02T06:21:15;98336.47;;;7.62;100.00
12215;BME280;6170;42.206;24.142;2024-03-02T06:23:45;98475.66;;;8.49;100.00
12215;BME280;6170;42.206;24.142;2024-03-02T06:26:12;98336.16;;;7.72;100.00
12215;BME280;6170;42.206;24.142;2024-03-02T06:28:39;98352.91;;;7.93;100.00
12215;BME280;6170;42.206;24.142;2024-03-02T06:31:06;98472.47;;;8.73;100.00
12215;BME280;6170;42.206;24.142;2024-03-02T06:33:33;98383.56;;;8.04;100.00
12215;BME280;6170;42.206;24.142;2024-03-02T06:36:00;98397.91;;;8.03;100.00
12215;BME280;6170;42.206;24.142;2024-03-02T06:38:27;98377.91;;;7.92;100.00
12215;BME280;6170;42.206;24.142;2024-03-02T06:40:55;98393.59;;;8.02;100.00
12215;BME280;6170;42.206;24.142;2024-03-02T06:43:22;98386.91;;;8.19;100.00
12215;BME280;6170;42.206;24.142;2024-03-02T06:45:49;98349.41;;;7.93;100.00
12215;BME280;6170;42.206;24.142;2024-03-02T06:48:16;98384.31;;;7.98;100.00
12215;BME280;6170;42.206;24.142;2024-03-02T06:50:45;98487.66;;;8.73;100.00
12215;BME280;6170;42.206;24.142;2024-03-02T06:53:13;98348.44;;;8.00;100.00
12215;BME280;6170;42.206;24.142;2024-03-02T06:55:43;98380.06;;;8.38;100.00
12215;BME280;6170;42.206;24.142;2024-03-02T06:58:11;98385.63;;;8.36;100.00
12215;BME280;6170;42.206;24.142;2024-03-02T07:00:38;98483.97;;;9.15;100.00
12215;BME280;6170;42.206;24.142;2024-03-02T07:03:05;98379.06;;;8.39;100.00
12215;BME280;6170;42.206;24.142;2024-03-02T07:05:32;98400.06;;;8.55;100.00
12215;BME280;6170;42.206;24.142;2024-03-02T07:07:59;98489.72;;;9.18;100.00
12215;BME280;6170;42.206;24.142;2024-03-02T07:10:26;98395.63;;;8.69;100.00
12215;BME280;6170;42.206;24.142;2024-03-02T07:12:53;98493.19;;;9.12;100.00
12215;BME280;6170;42.206;24.142;2024-03-02T07:15:22;98398.31;;;8.75;100.00
12215;BME280;6170;42.206;24.142;2024-03-02T07:18:08;98385.47;;;8.44;100.00
12215;BME280;6170;42.206;24.142;2024-03-02T07:20:35;98386.94;;;8.53;100.00
12215;BME280;6170;42.206;24.142;2024-03-02T07:23:04;98395.53;;;8.49;100.00
12215;BME280;6170;42.206;24.142;2024-03-02T07:25:32;98489.13;;;9.29;100.00
12215;BME280;6170;42.206;24.142;2024-03-02T07:27:59;98366.72;;;8.31;100.00
12215;BME280;6170;42.206;24.142;2024-03-02T07:30:27;98396.47;;;8.76;100.00
12215;BME280;6170;42.206;24.142;2024-03-02T07:32:54;98387.22;;;8.72;100.00
12215;BME280;6170;42.206;24.142;2024-03-02T07:35:21;98487.78;;;9.46;99.68
12215;BME280;6170;42.206;24.142;2024-03-02T07:37:52;98495.13;;;9.31;99.57
12215;BME280;6170;42.206;24.142;2024-03-02T07:40:19;98493.13;;;9.46;98.71
12215;BME280;6170;42.206;24.142;2024-03-02T07:42:46;98388.66;;;8.81;98.52
12215;BME280;6170;42.206;24.142;2024-03-02T07:45:13;98399.38;;;8.87;99.07
12215;BME280;6170;42.206;24.142;2024-03-02T07:47:41;98492.50;;;9.51;98.65
12215;BME280;6170;42.206;24.142;2024-03-02T07:50:09;98387.41;;;8.70;98.85
12215;BME280;6170;42.206;24.142;2024-03-02T07:52:36;98396.91;;;8.79;99.14
12215;BME280;6170;42.206;24.142;2024-03-02T07:55:03;98391.75;;;8.71;98.69
12215;BME280;6170;42.206;24.142;2024-03-02T07:57:31;98511.78;;;9.33;99.41
12215;BME280;6170;42.206;24.142;2024-03-02T07:59:58;98377.38;;;8.79;99.37
12215;BME280;6170;42.206;24.142;2024-03-02T08:02:25;98412.31;;;8.84;98.94
12215;BME280;6170;42.206;24.142;2024-03-02T08:04:53;98487.50;;;9.28;98.83
12215;BME280;6170;42.206;24.142;2024-03-02T08:07:20;98415.47;;;9.00;99.03
12215;BME280;6170;42.206;24.142;2024-03-02T08:09:47;98412.56;;;8.95;98.75
12215;BME280;6170;42.206;24.142;2024-03-02T08:12:14;98410.16;;;9.14;98.69
12215;BME280;6170;42.206;24.142;2024-03-02T08:14:41;98416.50;;;9.06;98.08
12215;BME280;6170;42.206;24.142;2024-03-02T08:17:08;98468.56;;;9.30;98.07
12215;BME280;6170;42.206;24.142;2024-03-02T08:19:37;98510.00;;;9.54;97.94
12215;BME280;6170;42.206;24.142;2024-03-02T08:22:05;98496.81;;;9.52;98.50
12215;BME280;6170;42.206;24.142;2024-03-02T08:24:33;98422.22;;;9.03;98.76
12215;BME280;6170;42.206;24.142;2024-03-02T08:27:00;98425.16;;;9.21;98.51
12215;BME280;6170;42.206;24.142;2024-03-02T08:29:27;98409.47;;;8.98;97.95
12215;BME280;6170;42.206;24.142;2024-03-02T08:31:54;98423.72;;;9.19;97.91
12215;BME280;6170;42.206;24.142;2024-03-02T08:34:21;98526.94;;;9.93;97.73
12215;BME280;6170;42.206;24.142;2024-03-02T08:36:48;98415.34;;;9.41;96.93
12215;BME280;6170;42.206;24.142;2024-03-02T08:39:17;98419.25;;;9.52;96.39
12215;BME280;6170;42.206;24.142;2024-03-02T08:41:45;98517.06;;;9.94;96.11
12215;BME280;6170;42.206;24.142;2024-03-02T08:44:13;98422.38;;;9.69;95.38
12215;BME280;6170;42.206;24.142;2024-03-02T08:46:40;98408.31;;;9.34;94.75
12215;BME280;6170;42.206;24.142;2024-03-02T08:49:07;98519.13;;;10.18;94.33
12215;BME280;6170;42.206;24.142;2024-03-02T08:51:34;98426.06;;;9.74;95.12
12215;BME280;6170;42.206;24.142;2024-03-02T08:54:01;98430.38;;;9.56;94.77
12215;BME280;6170;42.206;24.142;2024-03-02T08:56:31;98445.22;;;9.78;95.26
12215;BME280;6170;42.206;24.142;2024-03-02T08:58:58;98527.59;;;10.35;94.77
12215;BME280;6170;42.206;24.142;2024-03-02T09:01:25;98525.53;;;10.57;94.39
12215;BME280;6170;42.206;24.142;2024-03-02T09:03:52;98407.13;;;9.56;93.10
12215;BME280;6170;42.206;24.142;2024-03-02T09:06:18;98430.81;;;9.99;92.80
12215;BME280;6170;42.206;24.142;2024-03-02T09:08:46;98423.59;;;9.86;93.18
12215;BME280;6170;42.206;24.142;2024-03-02T09:11:15;98401.97;;;9.74;92.62
12215;BME280;6170;42.206;24.142;2024-03-02T09:13:43;98419.06;;;10.00;92.58
12215;BME280;6170;42.206;24.142;2024-03-02T09:16:10;98418.63;;;10.09;93.57
12215;BME280;6170;42.206;24.142;2024-03-02T09:18:37;98429.38;;;10.16;93.00
12215;BME280;6170;42.206;24.142;2024-03-02T09:21:04;98435.94;;;9.93;90.29
12215;BME280;6170;42.206;24.142;2024-03-02T09:23:32;98447.47;;;9.94;90.53
12215;BME280;6170;42.206;24.142;2024-03-02T09:25:59;98429.38;;;9.76;90.91
12215;BME280;6170;42.206;24.142;2024-03-02T09:28:26;98527.38;;;10.50;92.32
12215;BME280;6170;42.206;24.142;2024-03-02T09:30:54;98425.66;;;9.90;91.82
12215;BME280;6170;42.206;24.142;2024-03-02T09:33:21;98433.88;;;9.69;91.07
12215;BME280;6170;42.206;24.142;2024-03-02T09:35:48;98423.19;;;9.96;91.21
12215;BME280;6170;42.206;24.142;2024-03-02T09:38:15;98516.66;;;10.50;92.55
12215;BME280;6170;42.206;24.142;2024-03-02T09:40:42;98411.66;;;9.69;92.33
12215;BME280;6170;42.206;24.142;2024-03-02T09:43:10;98517.47;;;10.70;92.30
12215;BME280;6170;42.206;24.142;2024-03-02T09:45:37;98421.75;;;10.26;90.62
12215;BME280;6170;42.206;24.142;2024-03-02T09:48:06;98424.97;;;10.48;91.99
12215;BME280;6170;42.206;24.142;2024-03-02T09:50:33;98396.22;;;10.04;93.83
12215;BME280;6170;42.206;24.142;2024-03-02T09:53:01;98418.63;;;10.22;95.15
12215;BME280;6170;42.206;24.142;2024-03-02T09:55:28;98506.38;;;11.11;95.25
12215;BME280;6170;42.206;24.142;2024-03-02T09:57:55;98441.19;;;10.72;92.55
12215;BME280;6170;42.206;24.142;2024-03-02T10:00:22;98404.44;;;10.86;92.41
12215;BME280;6170;42.206;24.142;2024-03-02T10:02:50;98417.31;;;10.58;93.42
12215;BME280;6170;42.206;24.142;2024-03-02T10:05:27;98403.22;;;10.75;91.39
12215;BME280;6170;42.206;24.142;2024-03-02T10:08:00;98489.31;;;11.43;90.03
12215;BME280;6170;42.206;24.142;2024-03-02T10:10:36;98487.25;;;11.45;92.42
12215;BME280;6170;42.206;24.142;2024-03-02T10:13:06;98404.00;;;10.89;93.57
12215;BME280;6170;42.206;24.142;2024-03-02T10:15:35;98379.09;;;10.82;92.78
12215;BME280;6170;42.206;24.142;2024-03-02T10:18:03;98474.72;;;11.77;91.79
12215;BME280;6170;42.206;24.142;2024-03-02T10:20:31;98384.06;;;11.48;91.65
12215;BME280;6170;42.206;24.142;2024-03-02T10:23:10;98375.69;;;11.00;93.37
12215;BME280;6170;42.206;24.142;2024-03-02T10:25:37;98465.50;;;11.91;91.25
12215;BME280;6170;42.206;24.142;2024-03-02T10:28:04;98369.78;;;11.54;91.63
12215;BME280;6170;42.206;24.142;2024-03-02T10:30:32;98373.72;;;11.20;91.87
12215;BME280;6170;42.206;24.142;2024-03-02T10:33:00;98319.69;;;10.47;90.99
12215;BME280;6170;42.206;24.142;2024-03-02T10:35:28;98467.91;;;11.99;90.61
12215;BME280;6170;42.206;24.142;2024-03-02T10:37:58;98459.88;;;12.24;89.79
12215;BME280;6170;42.206;24.142;2024-03-02T10:40:26;98367.00;;;11.92;89.83
12215;BME280;6170;42.206;24.142;2024-03-02T10:42:54;98373.84;;;12.12;88.27
12215;BME280;6170;42.206;24.142;2024-03-02T10:45:21;98451.41;;;13.00;84.55
12215;BME280;6170;42.206;24.142;2024-03-02T10:47:49;98353.75;;;12.15;86.71
12215;BME280;6170;42.206;24.142;2024-03-02T10:50:17;98362.56;;;12.22;86.87
12215;BME280;6170;42.206;24.142;2024-03-02T10:52:44;98348.41;;;12.33;84.71
12215;BME280;6170;42.206;24.142;2024-03-02T10:55:13;98353.47;;;11.80;86.85
12215;BME280;6170;42.206;24.142;2024-03-02T10:57:50;98445.94;;;12.88;84.73
12215;BME280;6170;42.206;24.142;2024-03-02T11:00:19;98345.75;;;12.45;84.12
12215;BME280;6170;42.206;24.142;2024-03-02T11:02:51;98438.22;;;13.10;86.13
12215;BME280;6170;42.206;24.142;2024-03-02T11:05:26;98348.31;;;12.40;85.72
12215;BME280;6170;42.206;24.142;2024-03-02T11:07:57;98434.25;;;12.83;85.30
12215;BME280;6170;42.206;24.142;2024-03-02T11:10:34;98427.00;;;12.65;86.10
12215;BME280;6170;42.206;24.142;2024-03-02T11:13:05;98337.78;;;12.20;83.50
12215;BME280;6170;42.206;24.142;2024-03-02T11:15:33;98342.66;;;12.30;83.52
12215;BME280;6170;42.206;24.142;2024-03-02T11:18:03;98332.69;;;12.48;81.25
12215;BME280;6170;42.206;24.142;2024-03-02T11:20:36;98347.47;;;12.57;79.77
12215;BME280;6170;42.206;24.142;2024-03-02T11:23:07;98338.53;;;12.64;81.64
12215;BME280;6170;42.206;24.142;2024-03-02T11:25:36;98353.16;;;12.49;80.27
12215;BME280;6170;42.206;24.142;2024-03-02T11:28:05;98335.09;;;12.56;80.42
12215;BME280;6170;42.206;24.142;2024-03-02T11:30:50;98341.41;;;12.62;80.57
12215;BME280;6170;42.206;24.142;2024-03-02T11:33:26;98344.88;;;12.33;80.17
12215;BME280;6170;42.206;24.142;2024-03-02T11:35:57;98341.88;;;12.23;81.73
12215;BME280;6170;42.206;24.142;2024-03-02T11:38:31;98431.41;;;12.78;82.98
12215;BME280;6170;42.206;24.142;2024-03-02T11:41:01;98330.25;;;12.47;83.13
12215;BME280;6170;42.206;24.142;2024-03-02T11:43:29;98342.88;;;12.46;83.30
12215;BME280;6170;42.206;24.142;2024-03-02T11:45:58;98334.03;;;12.39;83.60
12215;BME280;6170;42.206;24.142;2024-03-02T11:48:25;98330.00;;;12.48;82.72
12215;BME280;6170;42.206;24.142;2024-03-02T11:50:53;98428.69;;;12.96;82.54
12215;BME280;6170;42.206;24.142;2024-03-02T11:53:20;98336.88;;;12.26;84.96
12215;BME280;6170;42.206;24.142;2024-03-02T11:55:47;98336.81;;;12.33;85.58
12215;BME280;6170;42.206;24.142;2024-03-02T11:58:17;98334.59;;;12.11;85.70
12215;BME280;6170;42.206;24.142;2024-03-02T12:00:46;98423.53;;;12.40;86.08
12215;BME280;6170;42.206;24.142;2024-03-02T12:03:13;98293.31;;;11.88;86.29
12215;BME280;6170;42.206;24.142;2024-03-02T12:05:40;98406.34;;;12.95;84.74
12215;BME280;6170;42.206;24.142;2024-03-02T12:08:09;98324.94;;;12.22;86.78
12215;BME280;6170;42.206;24.142;2024-03-02T12:10:36;98318.47;;;12.11;84.91
12215;BME280;6170;42.206;24.142;2024-03-02T12:13:04;98414.41;;;12.23;87.18
12215;BME280;6170;42.206;24.142;2024-03-02T12:15:35;98312.66;;;11.71;88.20
12215;BME280;6170;42.206;24.142;2024-03-02T12:18:03;98412.59;;;12.59;87.62
12215;BME280;6170;42.206;24.142;2024-03-02T12:20:32;98324.59;;;12.19;85.44
12215;BME280;6170;42.206;24.142;2024-03-02T12:23:01;98406.59;;;12.57;85.81
12215;BME280;6170;42.206;24.142;2024-03-02T12:25:28;98316.59;;;11.69;87.78
12215;BME280;6170;42.206;24.142;2024-03-02T12:27:58;98315.75;;;11.68;88.25
12215;BME280;6170;42.206;24.142;2024-03-02T12:30:27;98326.06;;;11.47;88.22
12215;BME280;6170;42.206;24.142;2024-03-02T12:32:57;98316.22;;;11.90;87.29
12215;BME280;6170;42.206;24.142;2024-03-02T12:35:24;98307.72;;;12.11;86.79
12215;BME280;6170;42.206;24.142;2024-03-02T12:37:52;98405.34;;;12.60;85.20
12215;BME280;6170;42.206;24.142;2024-03-02T12:40:21;98312.59;;;12.21;84.46
12215;BME280;6170;42.206;24.142;2024-03-02T12:42:49;98315.69;;;12.18;86.32
12215;BME280;6170;42.206;24.142;2024-03-02T12:45:16;98403.09;;;12.57;84.73
12215;BME280;6170;42.206;24.142;2024-03-02T12:47:49;98322.50;;;12.02;85.44
12215;BME280;6170;42.206;24.142;2024-03-02T12:50:18;98314.88;;;11.81;88.05
12215;BME280;6170;42.206;24.142;2024-03-02T12:52:51;98316.34;;;11.95;87.77
12215;BME280;6170;42.206;24.142;2024-03-02T12:55:18;98399.13;;;12.78;86.27
12215;BME280;6170;42.206;24.142;2024-03-02T12:57:46;98321.03;;;11.82;84.49
12215;BME280;6170;42.206;24.142;2024-03-02T13:00:13;98322.72;;;12.01;86.69
12215;BME280;6170;42.206;24.142;2024-03-02T13:02:41;98312.19;;;12.18;86.33
12215;BME280;6170;42.206;24.142;2024-03-02T13:05:08;98408.84;;;12.60;85.23
12215;BME280;6170;42.206;24.142;2024-03-02T13:07:38;98407.63;;;12.75;86.18